Latest Weather Observations for Flinders Island Airport

IDT60801

Issued at 7:03 pm EDT Thursday 5 March 2015 (issued every 30 minutes, with the page automatically refreshed every 10 minutes)

About weather observations | Map of weather stations | Latest weather observations for TAS | Other Formats
Station Details ID: 099005 Name: FLINDERS ISLAND AIRPORT Lat: -40.09 Lon: 148.00 Height: 9.0 m
Data from the previous 72 hours. | See also: Recent months at Flinders Island Airport
Date/Time
EDT
Temp
°C
App
Temp
°C
Dew
Point
Rel
Hum
%
Delta-T
°C
Wind Press
QNH
hPa
Press
MSL
hPa
Rain
since 9 am
mm
Dir
 
Spd
km/h
Gust
km/h
Spd
kts
Gust
kts
05/07:00pm 15.0 2.7 6.8 58 4.0 W 61 80 33 43 1007.6 1007.6 0.0
05/06:39pm 15.5 3.9 5.7 52 4.7 W 56 74 30 40 1007.8 1007.8 0.0
05/06:30pm 15.4 3.4 5.0 50 4.9 W 57 74 31 40 1007.9 1007.9 0.0
05/06:03pm 15.6 3.3 7.1 57 4.2 W 61 80 33 43 1008.0 1008.0 0.0
05/06:00pm 15.4 2.9 6.1 54 4.5 W 61 76 33 41 1008.0 1008.0 0.0
05/05:30pm 15.3 4.4 7.3 59 4.0 W 54 69 29 37 1008.1 1008.1 0.0
05/05:25pm 15.5 4.2 7.0 57 4.2 W 56 74 30 40 1008.2 1008.2 0.0
05/05:00pm 16.2 4.1 6.1 51 4.9 W 59 72 32 39 1008.1 1008.1 0.0
05/04:34pm 16.1 3.6 6.0 51 4.9 WSW 61 80 33 43 1008.2 1008.2 0.0
05/04:30pm 16.0 3.2 6.2 52 4.8 WSW 63 80 34 43 1008.2 1008.2 0.0
05/04:00pm 16.2 4.7 7.2 55 4.5 WSW 57 72 31 39 1008.7 1008.7 0.0
05/03:30pm 15.9 4.6 7.1 56 4.4 WSW 56 65 30 35 1009.1 1009.1 0.0
05/03:00pm 16.0 4.5 6.4 53 4.7 WSW 56 70 30 38 1009.4 1009.4 0.0
05/02:30pm 16.4 5.4 6.8 53 4.7 WSW 54 69 29 37 1009.6 1009.6 0.0
05/02:00pm 16.1 5.3 6.0 51 4.9 WSW 52 67 28 36 1009.4 1009.4 0.0
05/01:54pm 16.0 5.4 6.7 54 4.6 WSW 52 70 28 38 1009.5 1009.5 0.0
05/01:30pm 15.1 3.8 5.3 52 4.6 WSW 54 70 29 38 1009.7 1009.7 0.0
05/01:00pm 15.7 4.5 4.1 46 5.4 WSW 52 63 28 34 1009.5 1009.5 0.0
05/12:32pm 15.4 6.3 5.9 53 4.6 WSW 43 61 23 33 1010.0 1010.0 0.0
05/12:30pm 15.4 6.3 5.9 53 4.6 WSW 43 59 23 32 1010.0 1010.0 0.0
05/12:00pm 15.4 5.3 3.9 46 5.3 SW 46 63 25 34 1010.0 1010.0 0.0
05/11:57am 15.7 5.6 5.9 52 4.7 SW 48 67 26 36 1010.1 1010.1 0.0
05/11:30am 15.2 4.0 6.0 54 4.4 SW 54 70 29 38 1009.8 1009.8 0.0
05/11:01am 14.7 3.0 5.5 54 4.4 SW 56 74 30 40 1009.1 1009.1 0.0
05/11:00am 14.6 2.7 5.4 54 4.4 SW 57 74 31 40 1009.1 1009.1 0.0
05/10:37am 13.9 2.8 4.5 53 4.3 SW 52 72 28 39 1008.9 1008.9 0.0
05/10:30am 15.0 3.8 6.0 55 4.3 SW 54 69 29 37 1008.8 1008.8 0.0
05/10:19am 14.2 2.6 5.6 56 4.1 SW 56 74 30 40 1008.7 1008.7 0.0
05/10:00am 13.9 2.7 5.8 58 3.8 WSW 54 70 29 38 1007.9 1007.9 0.0
05/09:55am 14.1 3.0 6.5 60 3.7 WSW 54 72 29 39 1007.8 1007.8 0.0
05/09:30am 13.6 1.9 5.5 58 3.8 WSW 56 70 30 38 1007.0 1007.0 0.0
05/09:14am 13.5 2.0 6.1 61 3.5 WSW 56 74 30 40 1006.8 1006.8 0.0
05/09:00am 13.9 2.2 6.0 59 3.8 WSW 57 74 31 40 1006.4 1006.4 3.6
05/08:30am 13.3 1.2 5.9 61 3.5 WSW 59 74 32 40 1005.8 1005.8 3.6
05/08:00am 13.0 -0.9 4.9 58 3.8 WSW 67 85 36 46 1005.1 1005.1 3.6
05/07:30am 12.8 -1.3 5.7 62 3.3 WSW 69 89 37 48 1003.8 1003.8 3.6
05/07:00am 13.0 -0.8 6.8 66 3.0 WSW 69 87 37 47 1003.2 1003.2 3.6
05/06:47am 13.1 -0.5 7.8 70 2.6 WSW 69 87 37 47 1003.0 1003.0 3.6
05/06:30am 13.0 -1.4 6.8 66 3.0 WSW 72 89 39 48 1002.2 1002.2 3.6
05/06:08am 13.0 -1.2 6.1 63 3.3 WSW 70 91 38 49 1001.7 1001.7 3.6
05/06:00am 13.2 -1.1 7.2 67 2.9 WSW 72 89 39 48 1001.5 1001.5 3.6
05/05:44am 13.3 -0.7 6.2 62 3.4 WSW 69 87 37 47 1001.2 1001.2 3.6
05/05:30am 13.4 0.1 7.4 67 2.9 WSW 67 82 36 44 1000.9 1000.9 3.6
05/05:01am 13.5 -0.6 8.1 70 2.7 WSW 72 93 39 50 1000.3 1000.3 3.6
05/05:00am 13.4 -0.7 8.0 70 2.7 WSW 72 89 39 48 1000.4 1000.4 3.6
05/04:57am 13.6 -0.1 8.2 70 2.7 WSW 70 89 38 48 1000.2 1000.2 3.6
05/04:40am 13.4 0.0 9.5 77 2.0 WSW 70 91 38 49 1000.2 1000.2 3.6
05/04:34am 13.6 -0.2 9.3 75 2.2 WSW 72 91 39 49 1000.3 1000.3 3.6
05/04:30am 14.4 0.9 9.0 70 2.7 WSW 70 83 38 45 1000.4 1000.4 3.6
05/04:00am 14.4 2.5 10.2 76 2.2 WSW 63 78 34 42 1000.2 1000.2 3.6
05/03:30am 15.0 3.4 11.2 78 2.0 WSW 63 82 34 44 999.7 999.7 3.2
05/03:25am 14.8 3.3 11.4 80 1.8 W 63 82 34 44 999.8 999.8 3.2
05/03:21am 15.0 2.9 10.8 76 2.2 W 65 82 35 44 999.7 999.7 3.2
05/03:05am 14.8 4.8 11.9 83 1.6 W 56 91 30 49 999.9 999.9 3.0
05/03:00am 15.1 5.4 11.7 80 1.8 W 54 72 29 39 999.6 999.6 3.0
05/02:57am 15.3 6.0 11.7 79 1.9 W 52 70 28 38 999.6 999.6 3.0
05/02:41am 15.0 5.2 12.7 86 1.3 W 56 72 30 39 1000.2 1000.2 3.0
05/02:40am 14.9 4.9 12.8 87 1.2 W 57 72 31 39 1000.3 1000.3 3.0
05/02:30am 14.5 3.8 12.7 89 1.0 W 61 80 33 43 1000.2 1000.2 3.0
05/02:17am 14.8 5.2 13.2 90 0.9 W 56 74 30 40 1000.4 1000.4 3.0
05/02:16am 14.8 5.0 13.2 90 0.9 W 57 74 31 40 1000.4 1000.4 3.0
05/02:03am 14.8 4.8 12.8 88 1.1 W 57 76 31 41 1000.4 1000.4 3.0
05/02:00am 14.9 5.0 12.9 88 1.1 W 57 72 31 39 1000.5 1000.5 2.8
05/01:34am 16.0 5.6 13.8 87 1.2 WNW 61 93 33 50 1000.7 1000.7 0.4
05/01:33am 16.7 6.8 14.0 84 1.5 WNW 59 93 32 50 1000.7 1000.7 0.2
05/01:30am 18.0 8.7 13.1 73 2.8 WNW 54 76 29 41 1000.3 1000.3 0.2
05/01:13am 18.2 10.1 13.1 72 2.9 WNW 48 69 26 37 1000.8 1000.8 0.2
05/01:00am 17.9 9.8 13.2 74 2.7 WNW 48 65 26 35 1001.0 1001.0 0.2
05/12:30am 18.2 9.6 12.9 71 3.0 WNW 50 74 27 40 1001.8 1001.8 0.2
05/12:00am 18.0 9.5 13.1 73 2.8 WNW 50 69 27 37 1002.2 1002.2 0.0
 
Date/Time
EDT
Temp
°C
App
Temp
°C
Dew
Point
Rel
Hum
%
Delta-T
°C
Wind Press
QNH
hPa
Press
MSL
hPa
Rain
since 9 am
mm
Dir
 
Spd
km/h
Gust
km/h
Spd
kts
Gust
kts
04/11:37pm 17.8 9.9 13.9 78 2.2 WNW 48 67 26 36 1002.7 1002.7 0.0
04/11:30pm 17.3 9.1 14.2 82 1.8 WNW 50 67 27 36 1002.9 1002.9 0.0
04/11:00pm 18.2 10.2 13.5 74 2.7 WNW 48 69 26 37 1003.3 1003.3 0.0
04/10:33pm 18.0 9.9 13.3 74 2.7 WNW 48 67 26 36 1003.8 1003.8 0.0
04/10:30pm 18.3 9.9 13.4 73 2.8 WNW 50 61 27 33 1004.0 1004.0 0.0
04/10:03pm 18.1 10.8 12.8 71 3.0 WNW 43 61 23 33 1004.5 1004.5 0.0
04/10:00pm 18.1 10.4 13.2 73 2.8 WNW 46 61 25 33 1004.5 1004.5 0.0
04/09:31pm 17.6 9.3 12.7 73 2.7 WNW 48 67 26 36 1004.8 1004.8 0.0
04/09:30pm 17.6 8.9 12.7 73 2.7 WNW 50 67 27 36 1004.9 1004.9 0.0
04/09:19pm 17.5 9.0 13.2 76 2.4 WNW 50 69 27 37 1005.0 1005.0 0.0
04/09:00pm 17.0 9.9 13.5 80 2.0 WNW 43 59 23 32 1004.9 1004.9 0.0
04/08:35pm 16.1 9.0 14.1 88 1.1 WNW 44 63 24 34 1005.1 1005.1 0.0
04/08:30pm 16.2 8.3 13.7 85 1.4 WNW 48 63 26 34 1005.2 1005.2 0.0
04/08:00pm 17.6 9.4 12.9 74 2.6 WNW 48 65 26 35 1005.2 1005.2 0.0
04/07:48pm 17.6 9.9 13.3 76 2.4 WNW 46 65 25 35 1005.4 1005.4 0.0
04/07:30pm 17.9 10.3 13.6 76 2.4 WNW 46 61 25 33 1005.4 1005.4 0.0
04/07:17pm 18.3 11.0 13.4 73 2.8 WNW 44 65 24 35 1005.4 1005.4 0.0
04/07:00pm 18.2 10.5 13.3 73 2.8 WNW 46 59 25 32 1005.7 1005.7 0.0
04/06:32pm 18.3 11.2 13.4 73 2.8 WNW 43 61 23 33 1005.8 1005.8 0.0
04/06:30pm 18.3 11.0 13.4 73 2.8 WNW 44 61 24 33 1005.9 1005.9 0.0
04/06:00pm 17.8 10.2 13.7 77 2.3 WNW 46 57 25 31 1006.3 1006.3 0.0
04/05:52pm 17.7 10.6 15.1 85 1.5 W 46 65 25 35 1006.4 1006.4 0.0
04/05:30pm 18.5 11.4 13.4 72 2.9 W 43 56 23 30 1006.4 1006.4 0.0
04/05:00pm 19.3 11.2 13.2 68 3.5 W 48 61 26 33 1006.5 1006.5 0.0
04/04:30pm 19.5 12.2 12.7 65 3.8 WNW 43 56 23 30 1006.8 1006.8 0.0
04/04:02pm 19.3 12.7 12.6 65 3.8 WNW 39 57 21 31 1007.1 1007.1 0.0
04/04:00pm 19.7 12.3 12.5 63 4.0 WNW 43 59 23 32 1007.1 1007.1 0.0
04/03:30pm 19.5 11.9 12.3 63 4.0 WNW 44 63 24 34 1007.5 1007.5 0.0
04/03:26pm 19.9 12.3 12.4 62 4.2 WNW 44 63 24 34 1007.6 1007.6 0.0
04/03:00pm 20.1 12.7 12.3 61 4.4 WNW 43 57 23 31 1007.9 1007.9 0.0
04/02:30pm 20.4 13.1 12.9 62 4.3 WNW 43 54 23 29 1008.1 1008.1 0.0
04/02:00pm 20.1 13.4 13.3 65 3.9 W 41 52 22 28 1008.6 1008.6 0.0
04/01:30pm 19.0 11.3 12.0 64 3.9 W 44 57 24 31 1009.0 1009.0 0.0
04/01:00pm 20.0 12.2 11.0 56 4.9 WNW 43 56 23 30 1009.2 1009.2 0.0
04/12:39pm 20.0 12.3 10.1 53 5.3 W 41 59 22 32 1009.5 1009.5 0.0
04/12:30pm 19.8 11.8 11.0 57 4.8 WNW 44 59 24 32 1009.7 1009.7 0.0
04/12:00pm 18.6 10.8 11.7 64 3.8 W 44 57 24 31 1010.2 1010.2 0.0
04/11:30am 19.3 11.3 10.6 57 4.7 W 43 56 23 30 1010.4 1010.4 0.0
04/11:16am 19.2 11.7 11.0 59 4.5 W 41 59 22 32 1010.6 1010.6 0.0
04/11:00am 19.8 13.0 11.8 60 4.4 W 39 50 21 27 1010.7 1010.7 0.0
04/10:30am 17.6 10.3 11.6 68 3.3 W 41 57 22 31 1011.1 1011.1 0.0
04/10:21am 17.4 10.6 11.9 70 3.0 W 39 57 21 31 1011.2 1011.2 0.0
04/10:00am 17.3 8.9 12.2 72 2.8 W 48 57 26 31 1011.1 1011.1 0.0
04/09:49am 17.8 10.6 10.4 62 4.0 W 39 57 21 31 1011.0 1011.0 0.0
04/09:30am 18.1 10.9 10.5 61 4.1 W 39 54 21 29 1011.0 1011.0 0.0
04/09:00am 17.3 10.5 10.7 65 3.5 W 37 52 20 28 1011.2 1011.2 0.0
04/08:30am 17.4 10.1 10.3 63 3.8 WNW 39 50 21 27 1011.1 1011.1 0.0
04/08:00am 17.4 9.9 9.3 59 4.2 WNW 39 56 21 30 1011.0 1011.0 0.0
04/07:30am 17.1 8.7 9.0 59 4.2 W 43 61 23 33 1011.0 1011.0 0.0
04/07:22am 17.0 8.5 8.4 57 4.4 W 43 61 23 33 1010.9 1010.9 0.0
04/07:00am 16.7 9.2 9.4 62 3.8 W 39 54 21 29 1010.9 1010.9 0.0
04/06:30am 16.7 9.1 9.1 61 3.9 W 39 52 21 28 1010.7 1010.7 0.0
04/06:00am 16.4 9.9 8.9 61 3.9 W 33 48 18 26 1010.9 1010.9 0.0
04/05:30am 16.2 8.8 8.4 60 4.0 W 37 50 20 27 1011.0 1011.0 0.0
04/05:00am 16.3 8.6 8.8 61 3.8 W 39 56 21 30 1011.2 1011.2 0.0
04/04:30am 16.6 8.3 9.3 62 3.8 W 43 54 23 29 1011.3 1011.3 0.0
04/04:00am 16.1 9.6 9.1 63 3.6 W 33 43 18 23 1011.4 1011.4 0.0
04/03:30am 16.3 9.4 10.4 68 3.1 W 37 48 20 26 1011.5 1011.5 0.0
04/03:00am 16.7 9.4 11.6 72 2.8 W 41 52 22 28 1011.6 1011.6 0.0
04/02:30am 16.7 10.6 9.6 63 3.7 WNW 32 46 17 25 1011.9 1011.9 0.0
04/02:00am 16.8 11.0 10.9 68 3.2 W 32 43 17 23 1012.4 1012.4 0.0
04/01:30am 16.7 10.6 10.3 66 3.4 WNW 33 41 18 22 1012.9 1012.9 0.0
04/01:00am 16.7 10.9 10.8 68 3.2 W 32 41 17 22 1013.2 1013.2 0.0
04/12:30am 17.0 11.1 10.6 66 3.4 W 32 41 17 22 1013.4 1013.4 0.0
04/12:00am 17.0 11.1 10.4 65 3.5 W 32 41 17 22 1013.8 1013.8 0.0
 
Date/Time
EDT
Temp
°C
App
Temp
°C
Dew
Point
Rel
Hum
%
Delta-T
°C
Wind Press
QNH
hPa
Press
MSL
hPa
Rain
since 9 am
mm
Dir
 
Spd
km/h
Gust
km/h
Spd
kts
Gust
kts
03/11:30pm 16.9 10.4 10.5 66 3.4 W 35 43 19 23 1014.1 1014.1 0.0
03/11:00pm 17.0 10.2 10.8 67 3.3 W 37 44 20 24 1014.1 1014.1 0.0
03/10:30pm 17.1 11.2 10.5 65 3.5 W 32 39 17 21 1014.4 1014.4 0.0
03/10:00pm 17.0 11.5 10.6 66 3.4 W 30 37 16 20 1014.6 1014.6 0.0
03/09:30pm 17.0 11.6 10.8 67 3.3 W 30 37 16 20 1014.5 1014.5 0.0
03/09:00pm 16.9 11.5 11.0 68 3.2 W 30 35 16 19 1014.4 1014.4 0.0
03/08:30pm 17.1 11.8 11.2 68 3.2 W 30 37 16 20 1014.3 1014.3 0.0
03/08:00pm 17.0 12.4 11.1 68 3.2 W 26 35 14 19 1014.0 1014.0 0.0
03/07:30pm 17.6 12.7 11.2 66 3.5 W 28 33 15 18 1014.0 1014.0 0.0
03/07:00pm 17.7 13.6 11.3 66 3.5 W 24 32 13 17 1014.0 1014.0 0.0
03/06:30pm 18.4 13.5 11.2 63 3.9 W 28 35 15 19 1014.0 1014.0 0.0
03/06:00pm 18.7 13.3 11.0 61 4.2 W 30 35 16 19 1014.1 1014.1 0.0
03/05:30pm 18.6 13.7 11.2 62 4.0 W 28 35 15 19 1014.2 1014.2 0.0
03/05:00pm 19.1 13.6 11.7 62 4.1 WSW 32 37 17 20 1014.2 1014.2 0.0
03/04:30pm 19.3 15.0 12.1 63 4.0 WSW 26 32 14 17 1014.3 1014.3 0.0
03/04:00pm 20.1 15.5 12.3 61 4.4 WSW 28 33 15 18 1014.4 1014.4 0.0
03/03:30pm 19.6 15.2 12.8 65 3.8 WSW 28 33 15 18 1014.8 1014.8 0.0
03/03:00pm 19.9 15.1 11.7 59 4.5 W 28 33 15 18 1015.2 1015.2 0.0
03/02:30pm 20.0 15.6 11.7 59 4.6 WSW 26 33 14 18 1015.3 1015.3 0.0
03/02:00pm 19.7 15.3 11.7 60 4.4 WSW 26 32 14 17 1015.3 1015.3 0.0
03/01:30pm 19.8 15.4 11.6 59 4.5 WSW 26 32 14 17 1015.5 1015.5 0.0
03/01:00pm 19.4 15.1 10.7 57 4.7 WSW 24 30 13 16 1015.6 1015.6 0.0
03/12:30pm 19.2 15.0 11.0 59 4.5 WSW 24 28 13 15 1015.9 1015.9 0.0
03/12:00pm 19.4 14.8 11.2 59 4.5 WSW 26 32 14 17 1016.0 1016.0 0.0
03/11:30am 19.1 15.0 11.4 61 4.2 WSW 24 28 13 15 1016.1 1016.1 0.0
03/11:00am 19.0 14.7 10.8 59 4.4 WSW 24 30 13 16 1016.3 1016.3 0.0
03/10:30am 19.0 14.9 11.6 62 4.1 WSW 24 30 13 16 1016.2 1016.2 0.0
03/10:00am 18.9 14.2 10.7 59 4.4 WSW 26 33 14 18 1016.0 1016.0 0.0
03/09:30am 18.4 13.2 11.7 65 3.7 SW 30 35 16 19 1015.7 1015.7 0.0
03/09:00am 18.0 13.2 11.8 67 3.4 WSW 28 32 15 17 1015.5 1015.5 0.0
03/08:30am 17.4 13.1 11.9 70 3.0 WSW 26 30 14 16 1015.3 1015.3 0.0
03/08:00am 16.7 12.9 11.0 69 3.1 WSW 22 28 12 15 1015.0 1015.0 0.0
03/07:30am 16.2 11.5 10.5 69 3.0 WSW 26 32 14 17 1014.7 1014.7 0.0
03/07:00am 16.3 12.0 10.6 69 3.0 SW 24 32 13 17 1014.5 1014.5 0.0
03/06:30am 15.8 11.8 10.3 70 2.9 SW 22 28 12 15 1014.1 1014.1 0.0
03/06:00am 15.6 11.3 10.6 72 2.6 SW 24 30 13 16 1013.8 1013.8 0.0
03/05:30am 16.0 12.1 10.7 71 2.8 SW 22 30 12 16 1013.9 1013.9 0.0
03/05:00am 16.0 12.5 11.0 72 2.7 SW 20 28 11 15 1013.7 1013.7 0.0
03/04:30am 16.0 12.2 11.2 73 2.6 WSW 22 28 12 15 1013.6 1013.6 0.0
03/04:00am 16.1 12.8 11.5 74 2.5 WSW 20 28 11 15 1013.6 1013.6 0.0
03/03:30am 16.2 13.0 11.8 75 2.4 SW 20 28 11 15 1013.6 1013.6 0.0
03/03:00am 16.5 13.6 12.8 79 2.1 SW 20 30 11 16 1013.5 1013.5 0.0
03/02:30am 16.7 13.8 12.8 78 2.2 SW 20 28 11 15 1013.9 1013.9 0.0
03/02:00am 16.9 13.0 13.4 80 2.0 SW 26 30 14 16 1014.3 1014.3 0.0
03/01:30am 16.7 12.9 12.5 76 2.3 W 24 30 13 16 1014.4 1014.4 0.0
03/01:26am 16.5 12.7 12.5 77 2.2 W 24 32 13 17 1014.6 1014.6 0.0
03/01:00am 11.5 7.5 10.6 94 0.5 W 22 28 12 15 1014.8 1014.8 0.0
03/12:30am 12.4 11.2 11.6 95 0.4 NNE 9 11 5 6 1014.9 1014.9 0.0
03/12:00am 11.4 10.5 10.5 94 0.5 ENE 6 9 3 5 1014.9 1014.9 0.0
 
Date/Time
EDT
Temp
°C
App
Temp
°C
Dew
Point
Rel
Hum
%
Delta-T
°C
Wind Press
QNH
hPa
Press
MSL
hPa
Rain
since 9 am
mm
Dir
 
Spd
km/h
Gust
km/h
Spd
kts
Gust
kts
02/11:30pm 11.9 10.8 10.8 93 0.6 NE 7 9 4 5 1015.0 1015.0 0.0
02/11:00pm 12.5 11.7 11.2 92 0.7 NE 6 9 3 5 1015.0 1015.0 0.0
02/10:30pm 13.4 12.3 12.1 92 0.7 NE 9 11 5 6 1015.2 1015.2 0.0
02/10:00pm 13.8 13.0 11.8 88 1.1 N 7 9 4 5 1015.6 1015.6 0.0
02/09:30pm 14.3 12.9 12.2 87 1.1 N 11 11 6 6 1015.4 1015.4 0.0
02/09:00pm 15.2 16.0 12.7 85 1.4 CALM 0 0 0 0 1015.4 1015.4 0.0
02/08:30pm 15.3 15.3 12.4 83 1.6 NE 4 7 2 4 1015.1 1015.1 0.0
02/08:00pm 15.9 15.2 12.1 78 2.1 NE 7 9 4 5 1015.0 1015.0 0.0
02/07:30pm 17.5 17.8 12.2 71 2.9 WNW 2 7 1 4 1015.3 1015.3 0.0

Other Formats:

Comma delimited format used in spreadsheet applications
http://www.bom.gov.au/fwo/IDT60801/IDT60801.94980.axf

JavaScript Object Notation format (JSON) in row-major order
http://www.bom.gov.au/fwo/IDT60801/IDT60801.94980.json